Aérodrome :
LOGIN :

S'inscrire | Disclaimer

   EN    FR    IT 

 










Légende :    VFR   VFR Marginal   IFR   IFR Intensif   IFR Très Intensif
Visi : 
Plafond : 
>= 8 km
>= 3000ft
5 à 8 km
1000 à 3000 ft
1500m à 5 km
500 à 1000 ft
800 à 1500m
200 à 500 ft
< 800m
< 200 ft
Symboles :   Orages  Brouillard  Fortes neiges  Fortes précipitations  Vent > 20 kt
SIGMETs :   Divers  Orages  Givrage  Turbulence  Onde Orograph.  Cendres Volcan.







- Altitude de l'aérodrome : 1496 ft
- Code IATA : SBZ


LRSB - Sibiu

DERNIER METAR :
  • 161300Z 15008KT 9999 TS SCT040CB BKN057 27/17 Q1014

METARs EXPIRÉS :
  • 161230Z 14009KT 9999 SCT040CB SCT057 28/17 Q1014
  • 161200Z 20003KT 140V230 9999 SCT045CB SCT054 30/17 Q1014
  • 161130Z VRB03KT 9999 SCT045CB SCT047 28/16 Q1015
  • 161100Z 35005KT 9999 FEW045CB SCT050 29/15 Q1015
  • 161030Z 36003KT 280V070 9999 FEW045CB SCT050 29/17 Q1015

TAF TAF LRSB
Valide du 16 à 12h jusqu'au 17 à 12h UTC


161100Z 1612/1712 VRB04KT CAVOK
PROB30
TEMPO 1613/1618 SCT050CB
Pas de NOTAMs connus pour ce terrain.



MET'MAP, la Météo Aéronautique d'un coup d'oeil ! - Copyright ORBIFLY Décembre 2007 - Disclaimer

ORBIFLY MET'MAP TEAM :

Programmation & Développement : Alexandra Zaïnal
Conception & Développement : Baudouin d'Aumeries
Co-Programmation & Développement : Marc-Olivier Méhu
Soutien technique & logistique : Manuel Goepfert

Contact : metmap@orbifly.com




SOURCES & CREDITS :

   NOAA